createdAt,value
2018-04-19T00:03:44.699Z,7.36
2018-04-19T00:07:45.451Z,6.56
2018-04-19T00:13:46.328Z,6.34
2018-04-19T00:17:47.217Z,6.44
2018-04-19T00:19:47.913Z,6.46
2018-04-19T00:23:48.762Z,6.07
2018-04-19T00:29:49.512Z,6.64
2018-04-19T00:33:50.279Z,6.33
2018-04-19T00:39:51.019Z,6.42
2018-04-19T00:45:51.828Z,6.74
2018-04-19T00:49:52.627Z,6.28
2018-04-19T00:55:53.767Z,6.77
2018-04-19T00:59:54.594Z,6.25
2018-04-19T01:01:55.357Z,6.15
2018-04-19T01:05:56.071Z,6.24
2018-04-19T01:11:56.735Z,6.61
2018-04-19T01:15:57.440Z,5.94
2018-04-19T01:21:58.318Z,6.45
2018-04-19T01:27:59.034Z,6.94
2018-04-19T01:31:59.798Z,6.45
2018-04-19T01:38:00.590Z,6.82
2018-04-19T01:42:01.334Z,6.65
2018-04-19T01:44:02.049Z,7.02
2018-04-19T01:48:02.736Z,6.7
2018-04-19T01:54:03.464Z,7.26
2018-04-19T01:58:04.338Z,6.79
2018-04-19T02:04:05.122Z,7.74
2018-04-19T02:08:05.982Z,7.23
2018-04-19T02:10:06.789Z,7.46
2018-04-19T02:14:07.578Z,7.32
2018-04-19T02:20:08.234Z,6.23
2018-04-19T02:24:08.988Z,5.81
2018-04-19T02:30:10.150Z,5.96
2018-04-19T02:36:10.958Z,6.13
2018-04-19T02:40:11.786Z,6.21
2018-04-19T02:46:12.573Z,6.34
2018-04-19T02:50:13.282Z,6.24
2018-04-19T02:52:14.212Z,6.01
2018-04-19T02:56:15.006Z,5.56
2018-04-19T03:02:16.018Z,6.78
2018-04-19T03:06:16.728Z,5.85
2018-04-19T03:12:17.452Z,5.8
2018-04-19T03:18:18.201Z,6.19
2018-04-19T03:22:18.974Z,5.59
2018-04-19T03:28:19.609Z,5.86
2018-04-19T03:32:20.306Z,5.62
2018-04-19T03:38:21.053Z,5.88
2018-04-19T03:44:21.826Z,6.02
2018-04-19T03:48:22.527Z,5.64
2018-04-19T03:54:23.422Z,6.32
2018-04-19T03:58:24.231Z,5.76
2018-04-19T04:00:25.056Z,6.64
2018-04-19T04:04:25.837Z,6.14
2018-04-19T04:10:26.783Z,6.4
2018-04-19T04:14:27.690Z,5.48
2018-04-19T04:20:28.541Z,6.37
2018-04-19T04:26:29.371Z,6.54
2018-04-19T04:30:30.142Z,5.34
2018-04-19T04:36:31.043Z,6.23
2018-04-19T04:40:31.817Z,5.87
2018-04-19T04:42:32.648Z,6.44
2018-04-19T04:46:33.403Z,6.18
2018-04-19T04:52:34.294Z,6.03
2018-04-19T04:56:35.252Z,5.43
2018-04-19T05:02:36.136Z,6.37
2018-04-19T05:08:37.111Z,6.12
2018-04-19T05:12:37.874Z,5.95
2018-04-19T05:18:38.697Z,6.48
2018-04-19T05:22:39.453Z,5.99
2018-04-19T05:28:40.206Z,6.09
2018-04-19T05:34:41.073Z,6.08
2018-04-19T05:38:41.849Z,5.88
2018-04-19T05:44:42.692Z,6.75
2018-04-19T05:48:43.509Z,6.83
2018-04-19T05:50:44.384Z,6.1
2018-04-19T05:54:45.212Z,6.25
2018-04-19T06:00:46.180Z,7.18
2018-04-19T06:04:47.072Z,6.9
2018-04-19T06:10:47.916Z,7.61
2018-04-19T06:16:49.896Z,9.19
2018-04-19T06:20:51.216Z,6.62
2018-04-19T06:26:52.062Z,6.76
2018-04-19T06:30:52.868Z,6.33
2018-04-19T06:32:53.608Z,6.45
2018-04-19T06:36:54.547Z,6.52
2018-04-19T06:42:55.485Z,6.45
2018-04-19T06:46:56.313Z,6.13
2018-04-19T06:52:57.158Z,6.79
2018-04-19T06:56:57.898Z,6.76
2018-04-19T06:58:58.714Z,7.21
2018-04-19T07:02:59.515Z,6.57
2018-04-19T07:09:00.350Z,8.09
2018-04-19T07:13:01.099Z,7.71
2018-04-19T07:19:01.831Z,8.26
2018-04-19T07:25:02.575Z,8.67
2018-04-19T07:29:03.422Z,7.65
2018-04-19T07:35:04.234Z,7.85
2018-04-19T07:39:05.048Z,7.14
2018-04-19T07:41:06.118Z,7.77
2018-04-19T07:45:07.102Z,7.47
2018-04-19T07:51:08.018Z,8.01
2018-04-19T07:55:08.879Z,7.99
2018-04-19T08:01:09.692Z,8.92
2018-04-19T08:05:10.498Z,7.89
2018-04-19T08:07:11.192Z,7.76
2018-04-19T08:11:11.987Z,7.17
2018-04-19T08:17:12.724Z,7.62
2018-04-19T08:21:13.466Z,7.37
2018-04-19T08:27:14.345Z,7.8
2018-04-19T08:33:15.109Z,7.41
2018-04-19T08:37:15.836Z,6.94
2018-04-19T08:43:16.711Z,7.4
2018-04-19T08:47:17.811Z,7.15
2018-04-19T08:49:18.497Z,7.66
2018-04-19T08:53:19.267Z,7.39
2018-04-19T08:59:20.121Z,7.12
2018-04-19T09:03:20.857Z,6.56
2018-04-19T09:09:21.771Z,7.47
2018-04-19T09:15:22.667Z,7.51
2018-04-19T09:19:23.494Z,6.77
2018-04-19T09:25:24.366Z,7.13
2018-04-19T09:29:25.132Z,6.57
2018-04-19T09:35:25.884Z,7.11
2018-04-19T09:41:26.705Z,6.97
2018-04-19T09:45:28.137Z,6.62
2018-04-19T09:51:28.942Z,6.34
2018-04-19T09:55:29.702Z,6.67
2018-04-19T09:57:30.390Z,7.22
2018-04-19T10:01:31.126Z,6.53
2018-04-19T10:07:31.843Z,7.09
2018-04-19T10:11:32.622Z,6.8
2018-04-19T10:17:33.413Z,7.37
2018-04-19T10:23:34.317Z,7.31
2018-04-19T10:27:35.119Z,7.02
2018-04-19T10:33:36.024Z,7.07
2018-04-19T10:37:37.257Z,7.04
2018-04-19T10:39:38.033Z,6.69
2018-04-19T10:43:38.802Z,6.93
2018-04-19T10:49:39.595Z,6.96
2018-04-19T10:53:40.241Z,6.93
2018-04-19T10:59:41.033Z,6.71
2018-04-19T11:03:41.731Z,6.86
2018-04-19T11:05:42.601Z,6.67
2018-04-19T11:09:43.382Z,6.56
2018-04-19T11:15:44.363Z,6.24
2018-04-19T11:19:45.057Z,6.61
2018-04-19T11:25:45.968Z,6.55
2018-04-19T11:31:46.908Z,6.88
2018-04-19T11:35:47.779Z,6.94
2018-04-19T11:41:48.981Z,6.64
2018-04-19T11:45:49.792Z,6.85
2018-04-19T11:47:50.551Z,7.08
2018-04-19T11:51:51.454Z,6.41
2018-04-19T11:57:52.417Z,7.19
2018-04-19T12:01:53.174Z,6.41
2018-04-19T12:07:54.349Z,7.37
2018-04-19T12:11:55.371Z,6.26
2018-04-19T12:13:56.573Z,6.87
2018-04-19T12:17:57.450Z,6.48
2018-04-19T12:23:58.204Z,7.02
2018-04-19T12:27:59.365Z,6.4
2018-04-19T12:34:00.201Z,7.14
2018-04-19T12:40:01.046Z,6.72
2018-04-19T12:44:01.948Z,6.72
2018-04-19T12:50:02.674Z,7.27
2018-04-19T12:54:03.857Z,6.86
2018-04-19T12:56:04.622Z,7.09
2018-04-19T13:00:05.326Z,7.01
2018-04-19T13:06:06.177Z,7.16
2018-04-19T13:10:06.921Z,6.31
2018-04-19T13:16:07.616Z,6.41
2018-04-19T13:22:08.474Z,7.01
2018-04-19T13:26:09.262Z,6.88
2018-04-19T13:32:10.035Z,7.51
2018-04-19T13:36:10.808Z,7.48
2018-04-19T13:42:12.008Z,6.43
2018-04-19T13:48:12.801Z,7.17
2018-04-19T13:52:13.748Z,7.06
2018-04-19T13:58:14.610Z,7.19
2018-04-19T14:02:15.361Z,6.78
2018-04-19T14:04:16.113Z,6.49
2018-04-19T14:08:16.980Z,6.73
2018-04-19T14:14:17.876Z,7.52
2018-04-19T14:18:18.575Z,7.53
2018-04-19T14:24:19.610Z,7.68
2018-04-19T14:30:20.566Z,8.21
2018-04-19T14:34:21.545Z,7.45
2018-04-19T14:40:22.343Z,8.44
2018-04-19T14:44:23.141Z,7.72
2018-04-19T14:46:23.995Z,8.32
2018-04-19T14:50:24.826Z,8.5
2018-04-19T14:56:25.607Z,8.56
2018-04-19T15:00:26.685Z,8.38
2018-04-19T15:06:27.420Z,8.16
2018-04-19T15:10:28.192Z,8.02
2018-04-19T15:12:28.906Z,8.59
2018-04-19T15:16:30.291Z,8.24
2018-04-19T15:26:33.468Z,7.78
2018-04-19T15:26:33.580Z,8.24
2018-04-19T15:32:34.357Z,7.96
2018-04-19T15:38:35.162Z,7.78
2018-04-19T15:42:35.879Z,7.38
2018-04-19T15:48:36.636Z,7.75
2018-04-19T15:52:37.583Z,8.17
2018-04-19T15:54:38.666Z,8.45
2018-04-19T15:58:39.577Z,8.25
2018-04-19T16:04:40.455Z,8.53
2018-04-19T16:08:41.843Z,7.57
2018-04-19T16:14:42.636Z,7.13
2018-04-19T16:18:43.506Z,7.3
2018-04-19T16:20:44.316Z,8.19
2018-04-19T16:24:45.040Z,7.95
2018-04-19T16:30:46.155Z,8.3
2018-04-19T16:34:47.217Z,7.86
2018-04-19T16:40:47.896Z,7.3
2018-04-19T16:46:48.700Z,8.15
2018-04-19T16:50:49.393Z,8.07
2018-04-19T16:56:50.617Z,8.22
2018-04-19T17:00:51.523Z,8.23
2018-04-19T17:02:52.313Z,8.65
2018-04-19T17:06:53.048Z,8.1
2018-04-19T17:12:54.048Z,8.66
2018-04-19T17:16:54.902Z,7.91
2018-04-19T17:22:55.925Z,8.54
2018-04-19T17:28:56.903Z,7.8
2018-04-19T17:32:58.100Z,7.7
2018-04-19T17:38:59.008Z,8.47
2018-04-19T17:42:59.977Z,8.25
2018-04-19T17:49:00.731Z,7.65
2018-04-19T17:55:01.642Z,7.9
2018-04-19T17:59:02.339Z,7.88
2018-04-19T18:05:03.128Z,8.97
2018-04-19T18:09:04.020Z,7.63
2018-04-19T18:11:04.813Z,8.41
2018-04-19T18:15:05.760Z,8.25
2018-04-19T18:21:06.637Z,7.44
2018-04-19T18:25:07.374Z,8
2018-04-19T18:31:08.592Z,10.04
2018-04-19T18:37:09.267Z,7.65
2018-04-19T18:41:10.043Z,7.76
2018-04-19T18:47:10.947Z,10.22
2018-04-19T18:51:11.756Z,9.21
2018-04-19T18:53:12.625Z,8.16
2018-04-19T18:57:13.230Z,9.38
2018-04-19T19:03:14.016Z,8.84
2018-04-19T19:07:14.879Z,8.65
2018-04-19T19:13:15.701Z,13.2
2018-04-19T19:17:16.794Z,12.37
2018-04-19T19:19:17.798Z,9.59
2018-04-19T19:23:18.546Z,9.17
2018-04-19T19:29:19.408Z,8.58
2018-04-19T19:33:20.227Z,9.12
2018-04-19T19:39:21.046Z,11.83
2018-04-19T19:45:22.027Z,9.7
2018-04-19T19:49:22.695Z,9.42
2018-04-19T19:55:23.754Z,8.6
2018-04-19T19:59:24.518Z,7.74
2018-04-19T20:01:25.261Z,11.6
2018-04-19T20:05:25.961Z,10.51
2018-04-19T20:11:26.747Z,10.06
2018-04-19T20:15:27.836Z,11.18
2018-04-19T20:21:28.644Z,9.86
2018-04-19T20:25:29.498Z,9.28
2018-04-19T20:27:30.293Z,8.32
2018-04-19T20:31:31.081Z,7.95
2018-04-19T20:37:31.897Z,6.67
2018-04-19T20:41:32.812Z,6.83
2018-04-19T20:47:33.724Z,6.72
2018-04-19T20:53:34.465Z,8.4
2018-04-19T20:57:35.331Z,7.74
2018-04-19T21:03:36.131Z,9.37
2018-04-19T21:07:44.324Z,8.17
2018-04-19T21:13:45.256Z,7.8
2018-04-19T21:19:46.086Z,6.41
2018-04-19T21:23:46.853Z,6.24
2018-04-19T21:29:47.749Z,6.74
2018-04-19T21:33:48.517Z,6.61
2018-04-19T21:35:49.487Z,6.41
2018-04-19T21:39:50.214Z,5.74
2018-04-19T21:45:50.972Z,6.55
2018-04-19T21:49:51.871Z,6.2
2018-04-19T21:55:52.664Z,6.67
2018-04-19T22:01:53.479Z,7.22
2018-04-19T22:05:54.222Z,7.21
2018-04-19T22:11:55.031Z,8.6
2018-04-19T22:15:55.822Z,7.45
2018-04-19T22:21:56.611Z,6.9
2018-04-19T22:27:57.370Z,9.04
2018-04-19T22:31:58.131Z,8.63
2018-04-19T22:37:58.877Z,9.49
2018-04-19T22:41:59.633Z,8.52
2018-04-19T22:44:00.448Z,9.11
2018-04-19T22:48:01.091Z,8.46
2018-04-19T22:54:01.797Z,8.57
2018-04-19T22:58:02.513Z,8.73
2018-04-19T23:04:03.287Z,9.22
2018-04-19T23:10:04.009Z,9.21
2018-04-19T23:14:04.801Z,8.89
2018-04-19T23:20:05.487Z,10.26
2018-04-19T23:24:06.302Z,9.09
2018-04-19T23:26:06.936Z,10.24
2018-04-19T23:30:07.761Z,10.93
2018-04-19T23:36:08.478Z,9.75
2018-04-19T23:40:09.210Z,9.49
2018-04-19T23:46:10.133Z,7.95
2018-04-19T23:50:10.939Z,7.79
2018-04-19T23:52:11.645Z,8.42
2018-04-19T23:56:12.380Z,7.82
